createdAt,value
2022-12-08T00:01:52.097Z,99680.44
2022-12-08T00:05:12.842Z,99669.75
2022-12-08T00:08:33.488Z,99655.78
2022-12-08T00:11:36.440Z,99670.53
2022-12-08T00:14:39.554Z,99671.28
2022-12-08T00:17:41.431Z,99669.59
2022-12-08T00:20:43.265Z,99677.47
2022-12-08T00:23:45.073Z,99673.13
2022-12-08T00:26:47.480Z,99667.06
2022-12-08T00:29:49.310Z,99668.59
2022-12-08T00:32:51.137Z,99667.31
2022-12-08T00:35:53.073Z,99667.31
2022-12-08T00:38:55.349Z,99664.59
2022-12-08T00:42:12.167Z,99676.88
2022-12-08T00:45:14.195Z,99667.38
2022-12-08T00:48:16.062Z,99658.66
2022-12-08T00:51:17.900Z,99650.56
2022-12-08T00:54:20.715Z,99657.44
2022-12-08T00:57:22.922Z,99656.03
2022-12-08T01:00:24.768Z,99648.53
2022-12-08T01:03:26.623Z,99653.56
2022-12-08T01:06:28.478Z,99647.31
2022-12-08T01:09:30.577Z,99653.28
2022-12-08T01:12:32.431Z,99640.69
2022-12-08T01:15:34.319Z,99643.06
2022-12-08T01:18:36.910Z,99644.63
2022-12-08T01:21:38.863Z,99644.69
2022-12-08T01:24:40.696Z,99649.72
2022-12-08T01:27:42.571Z,99649.16
2022-12-08T01:30:44.468Z,99640.00
2022-12-08T01:33:47.185Z,99640.31
2022-12-08T01:36:49.144Z,99654.56
2022-12-08T01:39:51.017Z,99658.09
2022-12-08T01:42:52.914Z,99666.69
2022-12-08T01:45:54.865Z,99664.06
2022-12-08T01:49:10.102Z,99652.94
2022-12-08T01:52:18.158Z,99651.38
2022-12-08T01:55:28.930Z,99652.31
2022-12-08T01:58:52.916Z,99671.38
2022-12-08T02:01:55.007Z,99671.84
2022-12-08T02:04:56.973Z,99670.84
2022-12-08T02:08:01.398Z,99669.31
2022-12-08T02:11:06.093Z,99672.06
2022-12-08T02:14:10.959Z,99670.00
2022-12-08T02:17:24.848Z,99669.31
2022-12-08T02:20:56.806Z,99680.28
2022-12-08T02:24:24.689Z,99685.97
2022-12-08T02:27:29.614Z,99680.56
2022-12-08T02:31:16.439Z,99683.88
2022-12-08T02:34:30.433Z,99679.13
2022-12-08T02:37:39.361Z,99690.13
2022-12-08T02:41:06.245Z,99688.91
2022-12-08T02:44:43.891Z,99680.94
2022-12-08T02:47:45.804Z,99676.41
2022-12-08T02:50:47.639Z,99661.66
2022-12-08T02:53:49.624Z,99672.00
2022-12-08T02:57:33.145Z,99666.53
2022-12-08T03:00:49.356Z,99660.38
2022-12-08T03:04:05.908Z,99661.22
2022-12-08T03:07:13.461Z,99654.88
2022-12-08T03:10:56.600Z,99653.16
2022-12-08T03:14:02.585Z,99655.31
2022-12-08T03:17:05.450Z,99664.66
2022-12-08T03:20:14.159Z,99655.72
2022-12-08T03:23:19.242Z,99656.16
2022-12-08T03:26:34.360Z,99666.50
2022-12-08T03:29:36.642Z,99660.31
2022-12-08T03:33:05.168Z,99654.63
2022-12-08T03:36:09.613Z,99655.84
2022-12-08T03:39:11.578Z,99647.91
2022-12-08T03:42:13.551Z,99649.69
2022-12-08T03:45:15.381Z,99645.28
2022-12-08T03:48:17.247Z,99642.25
2022-12-08T03:51:19.854Z,99639.44
2022-12-08T03:54:21.735Z,99650.00
2022-12-08T03:57:23.618Z,99640.28
2022-12-08T04:00:25.422Z,99641.41
2022-12-08T04:03:27.404Z,99643.81
2022-12-08T04:06:29.319Z,99653.38
2022-12-08T04:09:31.763Z,99654.09
2022-12-08T04:12:33.695Z,99661.50
2022-12-08T04:15:35.595Z,99674.47
2022-12-08T04:18:37.433Z,99670.00
2022-12-08T04:21:39.275Z,99670.84
2022-12-08T04:24:41.081Z,99667.38
2022-12-08T04:27:42.923Z,99668.59
2022-12-08T04:30:44.941Z,99671.69
2022-12-08T04:33:46.810Z,99674.31
2022-12-08T04:36:48.645Z,99685.75
2022-12-08T04:39:50.538Z,99686.59
2022-12-08T04:42:52.420Z,99670.06
2022-12-08T04:45:54.240Z,99668.09
2022-12-08T04:48:56.131Z,99660.66
2022-12-08T04:51:57.977Z,99663.06
2022-12-08T04:54:59.843Z,99663.84
2022-12-08T04:58:01.661Z,99677.78
2022-12-08T05:01:03.760Z,99683.59
2022-12-08T05:04:05.658Z,99680.50
2022-12-08T05:07:07.491Z,99676.78
2022-12-08T05:10:09.504Z,99665.47
2022-12-08T05:13:11.296Z,99673.06
2022-12-08T05:16:15.462Z,99680.56
2022-12-08T05:19:18.101Z,99697.00
2022-12-08T05:22:20.039Z,99704.09
2022-12-08T05:25:21.904Z,99699.34
2022-12-08T05:28:41.939Z,99702.47
2022-12-08T05:31:44.832Z,99708.97
2022-12-08T05:34:46.764Z,99709.13
2022-12-08T05:37:48.567Z,99706.19
2022-12-08T05:40:50.442Z,99704.34
2022-12-08T05:43:52.343Z,99705.06
2022-12-08T05:46:54.195Z,99712.38
2022-12-08T05:49:56.035Z,99713.38
2022-12-08T05:52:57.913Z,99715.63
2022-12-08T05:55:59.760Z,99717.09
2022-12-08T05:59:01.656Z,99720.72
2022-12-08T06:02:03.638Z,99727.38
2022-12-08T06:05:05.936Z,99722.19
2022-12-08T06:08:08.121Z,99724.81
2022-12-08T06:11:10.358Z,99716.88
2022-12-08T06:14:12.451Z,99722.75
2022-12-08T06:17:14.386Z,99731.47
2022-12-08T06:20:16.371Z,99723.31
2022-12-08T06:23:18.158Z,99730.47
2022-12-08T06:26:20.718Z,99735.66
2022-12-08T06:29:22.514Z,99740.91
2022-12-08T06:32:27.535Z,99729.56
2022-12-08T06:35:29.681Z,99735.41
2022-12-08T06:38:32.230Z,99736.56
2022-12-08T06:41:54.010Z,99738.81
2022-12-08T06:45:02.232Z,99736.03
2022-12-08T06:48:04.240Z,99734.50
2022-12-08T06:51:10.895Z,99739.63
2022-12-08T06:54:12.773Z,99736.75
2022-12-08T06:57:14.689Z,99739.16
2022-12-08T07:00:18.168Z,99733.44
2022-12-08T07:03:20.056Z,99738.63
2022-12-08T07:06:24.001Z,99746.81
2022-12-08T07:09:25.808Z,99753.22
2022-12-08T07:12:27.769Z,99758.78
2022-12-08T07:15:29.799Z,99761.25
2022-12-08T07:18:31.653Z,99773.44
2022-12-08T07:21:33.554Z,99765.88
2022-12-08T07:24:35.377Z,99767.59
2022-12-08T07:27:37.180Z,99783.25
2022-12-08T07:30:39.745Z,99776.22
2022-12-08T07:33:41.989Z,99783.72
2022-12-08T07:36:43.784Z,99777.47
2022-12-08T07:39:46.715Z,99777.94
2022-12-08T07:42:48.819Z,99779.91
2022-12-08T07:45:51.245Z,99775.81
2022-12-08T07:48:54.764Z,99776.13
2022-12-08T07:51:56.649Z,99780.06
2022-12-08T07:54:58.504Z,99783.22
2022-12-08T07:58:00.508Z,99786.84
2022-12-08T08:01:02.698Z,99790.25
2022-12-08T08:04:05.608Z,99791.94
2022-12-08T08:07:07.586Z,99783.22
2022-12-08T08:10:11.137Z,99788.31
2022-12-08T08:13:13.822Z,99777.91
2022-12-08T08:16:15.880Z,99780.03
2022-12-08T08:19:19.198Z,99779.88
2022-12-08T08:22:21.224Z,99775.13
2022-12-08T08:25:23.262Z,99772.19
2022-12-08T08:28:25.139Z,99771.66
2022-12-08T08:31:36.135Z,99770.22
2022-12-08T08:34:39.044Z,99769.72
2022-12-08T08:37:45.568Z,99768.72
2022-12-08T08:40:50.549Z,99771.00
2022-12-08T08:43:52.406Z,99760.03
2022-12-08T08:46:54.343Z,99760.97
2022-12-08T08:49:58.259Z,99765.38
2022-12-08T08:53:00.113Z,99760.88
2022-12-08T08:56:03.024Z,99755.44
2022-12-08T08:59:05.133Z,99747.28
2022-12-08T09:02:07.186Z,99744.47
2022-12-08T09:05:09.333Z,99745.91
2022-12-08T09:08:11.357Z,99749.75
2022-12-08T14:25:17.714Z,99748.63
2022-12-08T14:28:20.020Z,99751.38
2022-12-08T14:31:22.845Z,99747.47
2022-12-08T14:34:25.170Z,99747.88
2022-12-08T14:37:31.482Z,99750.47
2022-12-08T14:40:44.339Z,99748.25
2022-12-08T14:43:46.184Z,99756.28
2022-12-08T14:47:09.373Z,99753.38
2022-12-08T14:50:38.360Z,99760.06
2022-12-08T14:53:53.171Z,99767.03
2022-12-08T14:56:57.436Z,99764.22
2022-12-08T15:00:08.259Z,99760.25
2022-12-08T15:03:13.049Z,99760.94
2022-12-08T15:06:15.964Z,99764.41
2022-12-08T15:09:30.386Z,99765.06
2022-12-08T15:12:33.464Z,99768.47
2022-12-08T15:15:47.747Z,99760.66
2022-12-08T15:19:24.371Z,99772.88
2022-12-08T15:22:29.893Z,99770.34
2022-12-08T15:25:32.251Z,99772.72
2022-12-08T15:28:34.481Z,99760.19
2022-12-08T15:31:36.441Z,99769.03
2022-12-08T15:34:38.487Z,99759.25
2022-12-08T15:37:40.811Z,99763.50
2022-12-08T15:40:42.743Z,99771.22
2022-12-08T15:43:44.645Z,99767.81
2022-12-08T15:46:46.513Z,99763.31
2022-12-08T15:49:49.998Z,99760.69
2022-12-08T15:52:51.825Z,99762.66
2022-12-08T15:59:21.390Z,99750.69
2022-12-08T16:02:25.220Z,99746.16
2022-12-08T16:05:44.480Z,99747.84
2022-12-08T16:08:56.327Z,99749.38
2022-12-08T16:16:07.469Z,99730.16
2022-12-08T16:19:14.235Z,99724.69
2022-12-08T16:26:16.269Z,99736.28
2022-12-08T16:29:06.947Z,99724.88
2022-12-08T16:32:08.876Z,99731.84
2022-12-08T16:35:12.640Z,99727.25
2022-12-08T16:38:18.845Z,99736.94
2022-12-08T16:41:39.513Z,99747.59
2022-12-08T16:44:42.256Z,99736.19
2022-12-08T16:47:52.153Z,99742.31
2022-12-08T16:50:54.381Z,99733.56
2022-12-08T16:53:58.421Z,99735.53
2022-12-08T16:57:00.382Z,99732.59
2022-12-08T17:00:02.774Z,99738.72
2022-12-08T17:03:06.171Z,99735.06
2022-12-08T17:06:13.090Z,99732.44
2022-12-08T17:09:15.236Z,99735.72
2022-12-08T17:12:18.085Z,99733.00
2022-12-08T17:15:22.524Z,99730.44
2022-12-08T17:18:24.419Z,99736.28
2022-12-08T17:21:26.278Z,99733.84
2022-12-08T17:24:29.581Z,99735.16
2022-12-08T17:27:31.688Z,99739.50
2022-12-08T17:30:33.511Z,99736.94
2022-12-08T17:33:35.369Z,99735.16
2022-12-08T17:36:37.477Z,99730.56
2022-12-08T17:39:39.663Z,99731.50
2022-12-08T17:42:42.460Z,99721.69
2022-12-08T17:45:47.125Z,99719.16
2022-12-08T17:48:49.215Z,99711.34
2022-12-08T17:51:56.053Z,99712.09
2022-12-08T17:54:57.960Z,99710.47
2022-12-08T17:58:01.650Z,99713.22
2022-12-08T18:01:11.023Z,99706.06
2022-12-08T18:04:13.350Z,99698.91
2022-12-08T18:07:15.204Z,99704.47
2022-12-08T18:10:18.391Z,99700.69
2022-12-08T18:13:23.215Z,99702.38
2022-12-08T18:16:27.706Z,99704.19
2022-12-08T18:19:29.790Z,99700.69
2022-12-08T18:22:31.589Z,99702.38
2022-12-08T18:25:33.446Z,99697.78
2022-12-08T18:28:36.723Z,99695.88
2022-12-08T18:31:38.578Z,99695.78
2022-12-08T18:34:40.433Z,99687.78
2022-12-08T18:37:43.122Z,99684.59
2022-12-08T18:40:44.956Z,99692.88
2022-12-08T18:43:47.144Z,99694.66
2022-12-08T18:46:49.210Z,99694.09
2022-12-08T18:49:51.053Z,99686.53
2022-12-08T18:52:53.918Z,99682.22
2022-12-08T18:55:57.184Z,99697.94
2022-12-08T18:59:03.881Z,99690.41
2022-12-08T19:02:10.918Z,99694.47
2022-12-08T19:05:14.212Z,99682.97
2022-12-08T19:08:16.176Z,99684.38
2022-12-08T19:11:26.950Z,99694.91
2022-12-08T19:14:30.497Z,99687.59
2022-12-08T19:17:32.359Z,99688.81
2022-12-08T19:20:34.215Z,99685.69
2022-12-08T19:23:36.440Z,99695.47
2022-12-08T19:26:39.608Z,99694.72
2022-12-08T19:29:42.513Z,99691.91
2022-12-08T19:32:47.051Z,99687.47
2022-12-08T19:35:52.779Z,99688.88
2022-12-08T19:39:15.277Z,99686.88
2022-12-08T19:42:38.489Z,99686.03
2022-12-08T19:45:40.645Z,99686.31
2022-12-08T19:48:42.788Z,99683.16
2022-12-08T19:51:44.634Z,99677.78
2022-12-08T19:54:47.350Z,99670.53
2022-12-08T19:57:50.401Z,99682.56
2022-12-08T20:00:52.163Z,99676.25
2022-12-08T20:03:54.133Z,99673.72
2022-12-08T20:06:56.849Z,99673.72
2022-12-08T20:09:58.782Z,99665.28
2022-12-08T20:13:20.153Z,99654.81
2022-12-08T20:16:24.203Z,99661.50
2022-12-08T20:19:26.431Z,99661.31
2022-12-08T20:22:28.400Z,99662.16
2022-12-08T20:25:30.392Z,99654.53
2022-12-08T20:28:35.001Z,99654.97
2022-12-08T20:31:36.914Z,99664.59
2022-12-08T20:34:38.858Z,99649.69
2022-12-08T20:37:40.747Z,99649.50
2022-12-08T20:40:44.131Z,99649.38
2022-12-08T20:43:47.546Z,99638.59
2022-12-08T20:46:49.946Z,99641.97
2022-12-08T20:49:52.399Z,99639.78
2022-12-08T20:52:54.542Z,99638.94
2022-12-08T20:55:56.583Z,99649.28
2022-12-08T20:58:59.235Z,99652.47
2022-12-08T21:02:01.313Z,99641.06
2022-12-08T21:05:05.149Z,99636.63
2022-12-08T21:08:07.542Z,99627.84
2022-12-08T21:11:10.321Z,99630.78
2022-12-08T21:14:12.300Z,99626.16
2022-12-08T21:17:14.284Z,99620.97
2022-12-08T21:20:16.637Z,99615.91
2022-12-08T21:23:19.234Z,99620.03
2022-12-08T21:26:25.965Z,99617.19
2022-12-08T21:29:28.083Z,99614.53
2022-12-08T21:32:30.780Z,99614.13
2022-12-08T21:35:33.189Z,99609.78
2022-12-08T21:38:38.851Z,99606.00
2022-12-08T21:41:59.532Z,99607.69
2022-12-08T21:45:04.589Z,99611.50
2022-12-08T21:48:11.964Z,99606.94
2022-12-08T21:51:14.286Z,99614.13
2022-12-08T21:54:19.059Z,99625.22
2022-12-08T21:57:21.534Z,99611.19
2022-12-08T22:00:24.244Z,99607.69
2022-12-08T22:03:28.523Z,99608.44
2022-12-08T22:06:31.037Z,99593.44
2022-12-08T22:09:33.360Z,99597.75
2022-12-08T22:12:36.809Z,99595.22
2022-12-08T22:15:38.989Z,99596.06
2022-12-08T22:18:42.478Z,99602.00
2022-12-08T22:21:44.721Z,99590.25
2022-12-08T22:24:47.082Z,99589.84
2022-12-08T22:27:49.352Z,99580.66
2022-12-08T22:30:51.315Z,99580.22
2022-12-08T22:33:53.618Z,99584.03
2022-12-08T22:36:55.602Z,99576.84
2022-12-08T22:39:57.554Z,99574.00
2022-12-08T22:42:59.482Z,99579.28
2022-12-08T22:46:01.654Z,99571.25
2022-12-08T22:49:03.919Z,99570.41
2022-12-08T22:52:06.167Z,99573.03
2022-12-08T22:55:08.648Z,99566.59
2022-12-08T22:58:11.516Z,99569.03
2022-12-08T23:01:40.062Z,99572.63
2022-12-08T23:04:42.261Z,99569.97
2022-12-08T23:07:44.664Z,99560.16
2022-12-08T23:10:47.801Z,99562.91
2022-12-08T23:13:49.574Z,99576.94
2022-12-08T23:16:51.744Z,99577.47
2022-12-08T23:19:53.737Z,99578.97
2022-12-08T23:22:55.540Z,99576.09
2022-12-08T23:25:57.389Z,99564.56
2022-12-08T23:29:00.077Z,99569.03
2022-12-08T23:32:02.029Z,99563.00
2022-12-08T23:35:05.053Z,99564.78
2022-12-08T23:38:07.092Z,99568.38
2022-12-08T23:41:11.855Z,99563.84
2022-12-08T23:44:13.687Z,99560.56
2022-12-08T23:47:15.998Z,99562.25
2022-12-08T23:50:17.930Z,99551.78
2022-12-08T23:53:19.905Z,99547.44
2022-12-08T23:56:23.263Z,99553.47
2022-12-08T23:59:31.633Z,99541.22
